sensor_id;sensor_type;location;lat;lon;timestamp;P1;durP1;ratioP1;P2;durP2;ratioP2
52322;SDS011;38263;52.920;6.238;2022-08-19T00:01:47;9.82;;;5.57;;
52322;SDS011;38263;52.920;6.238;2022-08-19T00:04:16;8.35;;;5.30;;
52322;SDS011;38263;52.920;6.238;2022-08-19T00:06:43;8.52;;;6.18;;
52322;SDS011;38263;52.920;6.238;2022-08-19T00:09:12;8.50;;;6.07;;
52322;SDS011;38263;52.920;6.238;2022-08-19T00:11:39;12.00;;;5.15;;
52322;SDS011;38263;52.920;6.238;2022-08-19T00:14:06;12.43;;;5.05;;
52322;SDS011;38263;52.920;6.238;2022-08-19T00:16:34;8.35;;;4.68;;
52322;SDS011;38263;52.920;6.238;2022-08-19T00:19:02;5.30;;;4.57;;
52322;SDS011;38263;52.920;6.238;2022-08-19T00:21:28;7.63;;;4.55;;
52322;SDS011;38263;52.920;6.238;2022-08-19T00:23:54;6.53;;;3.90;;
52322;SDS011;38263;52.920;6.238;2022-08-19T00:26:22;6.22;;;4.80;;
52322;SDS011;38263;52.920;6.238;2022-08-19T00:28:48;6.30;;;4.15;;
52322;SDS011;38263;52.920;6.238;2022-08-19T00:31:13;9.57;;;4.72;;
52322;SDS011;38263;52.920;6.238;2022-08-19T00:33:39;6.75;;;4.90;;
52322;SDS011;38263;52.920;6.238;2022-08-19T00:36:07;5.22;;;4.65;;
52322;SDS011;38263;52.920;6.238;2022-08-19T00:38:34;5.10;;;4.22;;
52322;SDS011;38263;52.920;6.238;2022-08-19T00:41:01;5.75;;;4.45;;
52322;SDS011;38263;52.920;6.238;2022-08-19T00:43:27;8.15;;;4.15;;
52322;SDS011;38263;52.920;6.238;2022-08-19T00:45:53;4.25;;;3.10;;
52322;SDS011;38263;52.920;6.238;2022-08-19T00:48:19;3.25;;;2.58;;
52322;SDS011;38263;52.920;6.238;2022-08-19T00:50:46;5.07;;;2.97;;
52322;SDS011;38263;52.920;6.238;2022-08-19T00:53:14;3.25;;;2.50;;
52322;SDS011;38263;52.920;6.238;2022-08-19T00:55:45;3.67;;;3.10;;
52322;SDS011;38263;52.920;6.238;2022-08-19T00:58:13;3.00;;;2.50;;
52322;SDS011;38263;52.920;6.238;2022-08-19T01:00:42;3.08;;;2.40;;
52322;SDS011;38263;52.920;6.238;2022-08-19T01:03:09;2.28;;;2.03;;
52322;SDS011;38263;52.920;6.238;2022-08-19T01:05:37;2.20;;;1.50;;
52322;SDS011;38263;52.920;6.238;2022-08-19T01:08:05;2.15;;;1.45;;
52322;SDS011;38263;52.920;6.238;2022-08-19T01:10:32;2.42;;;1.80;;
52322;SDS011;38263;52.920;6.238;2022-08-19T01:13:02;3.53;;;2.55;;
52322;SDS011;38263;52.920;6.238;2022-08-19T01:15:30;4.15;;;3.17;;
52322;SDS011;38263;52.920;6.238;2022-08-19T01:17:59;24.33;;;4.40;;
52322;SDS011;38263;52.920;6.238;2022-08-19T01:20:29;8.32;;;2.80;;
52322;SDS011;38263;52.920;6.238;2022-08-19T01:22:57;9.02;;;2.72;;
52322;SDS011;38263;52.920;6.238;2022-08-19T01:25:26;7.95;;;3.05;;
52322;SDS011;38263;52.920;6.238;2022-08-19T01:28:03;3.08;;;2.75;;
52322;SDS011;38263;52.920;6.238;2022-08-19T01:30:31;2.78;;;2.10;;
52322;SDS011;38263;52.920;6.238;2022-08-19T01:32:58;4.65;;;2.80;;
52322;SDS011;38263;52.920;6.238;2022-08-19T01:35:26;11.60;;;4.28;;
52322;SDS011;38263;52.920;6.238;2022-08-19T01:38:05;8.27;;;4.13;;
52322;SDS011;38263;52.920;6.238;2022-08-19T01:40:33;5.13;;;3.10;;
52322;SDS011;38263;52.920;6.238;2022-08-19T01:43:00;2.92;;;2.47;;
52322;SDS011;38263;52.920;6.238;2022-08-19T01:45:27;4.32;;;3.50;;
52322;SDS011;38263;52.920;6.238;2022-08-19T01:47:54;7.50;;;4.15;;
52322;SDS011;38263;52.920;6.238;2022-08-19T01:50:20;7.25;;;5.10;;
52322;SDS011;38263;52.920;6.238;2022-08-19T01:52:46;7.45;;;4.57;;
52322;SDS011;38263;52.920;6.238;2022-08-19T01:55:13;7.30;;;4.90;;
52322;SDS011;38263;52.920;6.238;2022-08-19T01:57:41;9.88;;;6.00;;
52322;SDS011;38263;52.920;6.238;2022-08-19T02:00:10;15.75;;;7.75;;
52322;SDS011;38263;52.920;6.238;2022-08-19T02:02:39;13.73;;;8.68;;
52322;SDS011;38263;52.920;6.238;2022-08-19T02:05:05;13.48;;;8.60;;
52322;SDS011;38263;52.920;6.238;2022-08-19T02:07:33;12.60;;;8.77;;
52322;SDS011;38263;52.920;6.238;2022-08-19T02:10:03;15.07;;;10.25;;
52322;SDS011;38263;52.920;6.238;2022-08-19T02:12:30;15.82;;;9.85;;
52322;SDS011;38263;52.920;6.238;2022-08-19T02:14:56;15.32;;;10.32;;
52322;SDS011;38263;52.920;6.238;2022-08-19T02:17:21;12.77;;;8.70;;
52322;SDS011;38263;52.920;6.238;2022-08-19T02:19:47;12.77;;;9.30;;
52322;SDS011;38263;52.920;6.238;2022-08-19T02:22:14;13.05;;;9.63;;
52322;SDS011;38263;52.920;6.238;2022-08-19T02:24:39;16.38;;;10.38;;
52322;SDS011;38263;52.920;6.238;2022-08-19T02:27:05;15.20;;;9.05;;
52322;SDS011;38263;52.920;6.238;2022-08-19T02:29:31;15.90;;;9.80;;
52322;SDS011;38263;52.920;6.238;2022-08-19T02:31:57;18.10;;;10.68;;
52322;SDS011;38263;52.920;6.238;2022-08-19T02:34:23;14.95;;;9.57;;
52322;SDS011;38263;52.920;6.238;2022-08-19T02:36:50;16.52;;;10.77;;
52322;SDS011;38263;52.920;6.238;2022-08-19T02:39:16;13.48;;;9.98;;
52322;SDS011;38263;52.920;6.238;2022-08-19T02:41:42;19.60;;;10.63;;
52322;SDS011;38263;52.920;6.238;2022-08-19T02:44:07;11.40;;;9.50;;
52322;SDS011;38263;52.920;6.238;2022-08-19T02:46:33;11.23;;;8.55;;
52322;SDS011;38263;52.920;6.238;2022-08-19T02:49:02;11.93;;;8.40;;
52322;SDS011;38263;52.920;6.238;2022-08-19T02:51:31;11.98;;;8.40;;
52322;SDS011;38263;52.920;6.238;2022-08-19T02:54:00;13.68;;;8.75;;
52322;SDS011;38263;52.920;6.238;2022-08-19T02:56:26;12.43;;;8.52;;
52322;SDS011;38263;52.920;6.238;2022-08-19T02:58:53;10.20;;;7.80;;
52322;SDS011;38263;52.920;6.238;2022-08-19T03:01:30;11.40;;;7.45;;
52322;SDS011;38263;52.920;6.238;2022-08-19T03:03:57;12.07;;;7.35;;
52322;SDS011;38263;52.920;6.238;2022-08-19T03:06:25;12.65;;;6.65;;
52322;SDS011;38263;52.920;6.238;2022-08-19T03:08:51;116.75;;;7.43;;
52322;SDS011;38263;52.920;6.238;2022-08-19T03:11:21;6.80;;;5.38;;
52322;SDS011;38263;52.920;6.238;2022-08-19T03:13:49;6.20;;;5.00;;
52322;SDS011;38263;52.920;6.238;2022-08-19T03:16:15;6.30;;;5.05;;
52322;SDS011;38263;52.920;6.238;2022-08-19T03:18:42;10.07;;;6.88;;
52322;SDS011;38263;52.920;6.238;2022-08-19T03:21:08;10.60;;;7.28;;
52322;SDS011;38263;52.920;6.238;2022-08-19T03:23:34;9.57;;;6.90;;
52322;SDS011;38263;52.920;6.238;2022-08-19T03:26:02;16.58;;;10.38;;
52322;SDS011;38263;52.920;6.238;2022-08-19T03:28:29;17.83;;;11.23;;
52322;SDS011;38263;52.920;6.238;2022-08-19T03:31:00;18.98;;;11.85;;
52322;SDS011;38263;52.920;6.238;2022-08-19T03:33:31;12.45;;;8.95;;
52322;SDS011;38263;52.920;6.238;2022-08-19T03:36:05;13.23;;;8.10;;
52322;SDS011;38263;52.920;6.238;2022-08-19T03:38:32;13.68;;;8.73;;
52322;SDS011;38263;52.920;6.238;2022-08-19T03:41:01;14.27;;;7.30;;
52322;SDS011;38263;52.920;6.238;2022-08-19T03:43:28;15.02;;;7.53;;
52322;SDS011;38263;52.920;6.238;2022-08-19T03:46:00;9.35;;;6.57;;
52322;SDS011;38263;52.920;6.238;2022-08-19T03:48:32;9.35;;;6.43;;
52322;SDS011;38263;52.920;6.238;2022-08-19T03:50:59;8.70;;;6.18;;
52322;SDS011;38263;52.920;6.238;2022-08-19T03:53:28;8.23;;;6.53;;
52322;SDS011;38263;52.920;6.238;2022-08-19T03:55:55;9.48;;;7.03;;
52322;SDS011;38263;52.920;6.238;2022-08-19T03:58:23;10.45;;;7.78;;
52322;SDS011;38263;52.920;6.238;2022-08-19T04:00:49;6.28;;;5.00;;
52322;SDS011;38263;52.920;6.238;2022-08-19T04:03:14;75.28;;;6.13;;
52322;SDS011;38263;52.920;6.238;2022-08-19T04:05:40;5.72;;;4.18;;
52322;SDS011;38263;52.920;6.238;2022-08-19T04:08:06;5.25;;;3.60;;
52322;SDS011;38263;52.920;6.238;2022-08-19T04:10:35;4.93;;;4.10;;
52322;SDS011;38263;52.920;6.238;2022-08-19T04:13:02;14.40;;;9.32;;
52322;SDS011;38263;52.920;6.238;2022-08-19T04:15:29;7.65;;;6.50;;
52322;SDS011;38263;52.920;6.238;2022-08-19T04:17:58;9.15;;;6.95;;
52322;SDS011;38263;52.920;6.238;2022-08-19T04:20:24;8.32;;;6.60;;
52322;SDS011;38263;52.920;6.238;2022-08-19T04:22:49;9.80;;;7.07;;
52322;SDS011;38263;52.920;6.238;2022-08-19T04:25:15;10.23;;;6.88;;
52322;SDS011;38263;52.920;6.238;2022-08-19T04:27:40;11.35;;;7.13;;
52322;SDS011;38263;52.920;6.238;2022-08-19T04:30:12;9.35;;;6.85;;
52322;SDS011;38263;52.920;6.238;2022-08-19T04:32:39;10.00;;;6.85;;
52322;SDS011;38263;52.920;6.238;2022-08-19T04:35:04;6.28;;;4.78;;
52322;SDS011;38263;52.920;6.238;2022-08-19T04:37:30;9.13;;;5.22;;
52322;SDS011;38263;52.920;6.238;2022-08-19T04:39:58;7.55;;;5.35;;
52322;SDS011;38263;52.920;6.238;2022-08-19T04:42:42;15.27;;;10.17;;
52322;SDS011;38263;52.920;6.238;2022-08-19T04:45:10;11.90;;;6.97;;
52322;SDS011;38263;52.920;6.238;2022-08-19T04:47:38;12.52;;;7.63;;
52322;SDS011;38263;52.920;6.238;2022-08-19T04:50:06;8.43;;;5.72;;
52322;SDS011;38263;52.920;6.238;2022-08-19T04:52:32;8.57;;;6.63;;
52322;SDS011;38263;52.920;6.238;2022-08-19T04:54:58;9.45;;;6.78;;
52322;SDS011;38263;52.920;6.238;2022-08-19T04:57:24;10.15;;;7.85;;
52322;SDS011;38263;52.920;6.238;2022-08-19T04:59:54;15.20;;;9.32;;
52322;SDS011;38263;52.920;6.238;2022-08-19T05:02:21;16.25;;;10.40;;
52322;SDS011;38263;52.920;6.238;2022-08-19T05:04:50;10.20;;;7.95;;
52322;SDS011;38263;52.920;6.238;2022-08-19T05:07:25;15.27;;;10.25;;
52322;SDS011;38263;52.920;6.238;2022-08-19T05:09:50;13.25;;;8.38;;
52322;SDS011;38263;52.920;6.238;2022-08-19T05:12:17;14.70;;;9.77;;
52322;SDS011;38263;52.920;6.238;2022-08-19T05:14:43;16.73;;;9.85;;
52322;SDS011;38263;52.920;6.238;2022-08-19T05:17:10;14.88;;;9.52;;
52322;SDS011;38263;52.920;6.238;2022-08-19T05:19:36;16.15;;;10.05;;
52322;SDS011;38263;52.920;6.238;2022-08-19T05:22:20;21.98;;;11.93;;
52322;SDS011;38263;52.920;6.238;2022-08-19T05:25:08;17.58;;;11.25;;
52322;SDS011;38263;52.920;6.238;2022-08-19T05:27:37;22.75;;;12.63;;
52322;SDS011;38263;52.920;6.238;2022-08-19T05:30:02;19.60;;;12.25;;
52322;SDS011;38263;52.920;6.238;2022-08-19T05:32:29;20.98;;;12.55;;
52322;SDS011;38263;52.920;6.238;2022-08-19T05:34:55;21.17;;;13.50;;
52322;SDS011;38263;52.920;6.238;2022-08-19T05:37:21;19.95;;;13.63;;
52322;SDS011;38263;52.920;6.238;2022-08-19T05:39:47;24.15;;;14.77;;
52322;SDS011;38263;52.920;6.238;2022-08-19T05:42:14;21.73;;;14.13;;
52322;SDS011;38263;52.920;6.238;2022-08-19T05:44:41;20.67;;;13.13;;
52322;SDS011;38263;52.920;6.238;2022-08-19T05:47:09;19.75;;;14.07;;
52322;SDS011;38263;52.920;6.238;2022-08-19T05:49:36;18.05;;;13.18;;
52322;SDS011;38263;52.920;6.238;2022-08-19T05:52:06;22.30;;;14.45;;
52322;SDS011;38263;52.920;6.238;2022-08-19T05:54:37;20.93;;;13.67;;
52322;SDS011;38263;52.920;6.238;2022-08-19T05:57:06;19.70;;;14.02;;
52322;SDS011;38263;52.920;6.238;2022-08-19T05:59:32;18.95;;;13.88;;
52322;SDS011;38263;52.920;6.238;2022-08-19T06:02:00;23.20;;;16.17;;
52322;SDS011;38263;52.920;6.238;2022-08-19T06:04:27;29.25;;;17.38;;
52322;SDS011;38263;52.920;6.238;2022-08-19T06:06:53;27.23;;;16.27;;
52322;SDS011;38263;52.920;6.238;2022-08-19T06:09:19;27.48;;;16.55;;
52322;SDS011;38263;52.920;6.238;2022-08-19T06:11:54;18.55;;;14.15;;
52322;SDS011;38263;52.920;6.238;2022-08-19T06:14:24;17.38;;;12.82;;
52322;SDS011;38263;52.920;6.238;2022-08-19T06:17:00;14.27;;;11.32;;
52322;SDS011;38263;52.920;6.238;2022-08-19T06:19:28;14.40;;;11.18;;
52322;SDS011;38263;52.920;6.238;2022-08-19T06:21:55;14.52;;;10.73;;
52322;SDS011;38263;52.920;6.238;2022-08-19T06:24:23;12.40;;;9.27;;
52322;SDS011;38263;52.920;6.238;2022-08-19T06:26:51;13.75;;;8.85;;
52322;SDS011;38263;52.920;6.238;2022-08-19T06:29:19;12.23;;;9.73;;
52322;SDS011;38263;52.920;6.238;2022-08-19T06:31:47;13.50;;;8.65;;
52322;SDS011;38263;52.920;6.238;2022-08-19T06:34:14;11.07;;;8.15;;
52322;SDS011;38263;52.920;6.238;2022-08-19T06:36:42;11.98;;;8.07;;
52322;SDS011;38263;52.920;6.238;2022-08-19T06:39:13;10.32;;;7.50;;
52322;SDS011;38263;52.920;6.238;2022-08-19T06:41:51;9.95;;;7.70;;
52322;SDS011;38263;52.920;6.238;2022-08-19T06:44:21;12.77;;;8.85;;
52322;SDS011;38263;52.920;6.238;2022-08-19T06:46:48;9.98;;;8.60;;
52322;SDS011;38263;52.920;6.238;2022-08-19T06:49:14;10.02;;;7.88;;
52322;SDS011;38263;52.920;6.238;2022-08-19T06:51:42;9.30;;;8.30;;
52322;SDS011;38263;52.920;6.238;2022-08-19T06:54:08;12.68;;;8.60;;
52322;SDS011;38263;52.920;6.238;2022-08-19T06:56:34;10.93;;;8.27;;
52322;SDS011;38263;52.920;6.238;2022-08-19T06:59:06;9.70;;;8.07;;
52322;SDS011;38263;52.920;6.238;2022-08-19T07:01:34;8.43;;;7.22;;
52322;SDS011;38263;52.920;6.238;2022-08-19T07:04:02;11.98;;;8.45;;
52322;SDS011;38263;52.920;6.238;2022-08-19T07:06:28;9.40;;;8.13;;
52322;SDS011;38263;52.920;6.238;2022-08-19T07:08:56;9.00;;;8.05;;
52322;SDS011;38263;52.920;6.238;2022-08-19T07:11:23;11.20;;;8.30;;
52322;SDS011;38263;52.920;6.238;2022-08-19T07:13:50;9.57;;;8.20;;
52322;SDS011;38263;52.920;6.238;2022-08-19T07:16:16;10.32;;;8.18;;
52322;SDS011;38263;52.920;6.238;2022-08-19T07:18:45;10.75;;;8.07;;
52322;SDS011;38263;52.920;6.238;2022-08-19T07:21:16;11.52;;;8.82;;
52322;SDS011;38263;52.920;6.238;2022-08-19T07:23:47;9.45;;;8.38;;
52322;SDS011;38263;52.920;6.238;2022-08-19T07:26:23;12.73;;;8.95;;
52322;SDS011;38263;52.920;6.238;2022-08-19T07:28:51;12.48;;;9.00;;
52322;SDS011;38263;52.920;6.238;2022-08-19T07:31:18;12.30;;;10.15;;
52322;SDS011;38263;52.920;6.238;2022-08-19T07:33:45;14.07;;;9.20;;
52322;SDS011;38263;52.920;6.238;2022-08-19T07:36:14;13.05;;;9.93;;
52322;SDS011;38263;52.920;6.238;2022-08-19T07:38:42;17.40;;;10.90;;
52322;SDS011;38263;52.920;6.238;2022-08-19T07:41:10;12.93;;;10.57;;
52322;SDS011;38263;52.920;6.238;2022-08-19T07:43:38;16.05;;;11.18;;
52322;SDS011;38263;52.920;6.238;2022-08-19T07:46:05;16.02;;;10.70;;
52322;SDS011;38263;52.920;6.238;2022-08-19T07:48:31;16.02;;;12.02;;
52322;SDS011;38263;52.920;6.238;2022-08-19T07:50:59;14.13;;;10.60;;
52322;SDS011;38263;52.920;6.238;2022-08-19T07:53:27;15.68;;;11.57;;
52322;SDS011;38263;52.920;6.238;2022-08-19T07:55:54;12.77;;;10.80;;
52322;SDS011;38263;52.920;6.238;2022-08-19T07:58:24;14.07;;;10.73;;
52322;SDS011;38263;52.920;6.238;2022-08-19T08:00:50;14.15;;;10.63;;
52322;SDS011;38263;52.920;6.238;2022-08-19T08:03:17;14.52;;;11.15;;
52322;SDS011;38263;52.920;6.238;2022-08-19T08:05:44;17.60;;;12.52;;
52322;SDS011;38263;52.920;6.238;2022-08-19T08:08:29;14.80;;;12.38;;
52322;SDS011;38263;52.920;6.238;2022-08-19T08:11:10;18.27;;;12.82;;
52322;SDS011;38263;52.920;6.238;2022-08-19T08:13:36;13.02;;;11.63;;
52322;SDS011;38263;52.920;6.238;2022-08-19T08:16:02;15.93;;;12.13;;
52322;SDS011;38263;52.920;6.238;2022-08-19T08:18:27;13.55;;;11.00;;
52322;SDS011;38263;52.920;6.238;2022-08-19T08:20:54;15.82;;;11.32;;
52322;SDS011;38263;52.920;6.238;2022-08-19T08:23:20;15.68;;;12.20;;
52322;SDS011;38263;52.920;6.238;2022-08-19T08:25:50;14.98;;;12.70;;
52322;SDS011;38263;52.920;6.238;2022-08-19T08:28:21;16.75;;;12.75;;
52322;SDS011;38263;52.920;6.238;2022-08-19T08:30:48;15.73;;;12.63;;
52322;SDS011;38263;52.920;6.238;2022-08-19T08:33:19;21.38;;;13.07;;
52322;SDS011;38263;52.920;6.238;2022-08-19T08:35:46;15.65;;;13.90;;
52322;SDS011;38263;52.920;6.238;2022-08-19T08:38:12;17.65;;;13.25;;
52322;SDS011;38263;52.920;6.238;2022-08-19T08:40:44;18.55;;;14.07;;
52322;SDS011;38263;52.920;6.238;2022-08-19T08:46:13;15.77;;;13.18;;
52322;SDS011;38263;52.920;6.238;2022-08-19T08:51:58;19.08;;;13.63;;
52322;SDS011;38263;52.920;6.238;2022-08-19T08:54:47;18.00;;;13.68;;
52322;SDS011;38263;52.920;6.238;2022-08-19T08:57:17;16.17;;;12.38;;
52322;SDS011;38263;52.920;6.238;2022-08-19T08:59:51;15.38;;;12.30;;
52322;SDS011;38263;52.920;6.238;2022-08-19T09:02:19;15.45;;;13.05;;
52322;SDS011;38263;52.920;6.238;2022-08-19T09:04:45;19.20;;;13.23;;
52322;SDS011;38263;52.920;6.238;2022-08-19T09:10:09;19.57;;;15.03;;
52322;SDS011;38263;52.920;6.238;2022-08-19T09:13:06;17.60;;;13.38;;
52322;SDS011;38263;52.920;6.238;2022-08-19T09:18:55;18.55;;;14.60;;
52322;SDS011;38263;52.920;6.238;2022-08-19T09:21:23;18.48;;;14.15;;
52322;SDS011;38263;52.920;6.238;2022-08-19T09:23:50;19.00;;;14.93;;
52322;SDS011;38263;52.920;6.238;2022-08-19T09:26:19;17.38;;;14.75;;
52322;SDS011;38263;52.920;6.238;2022-08-19T09:28:47;17.33;;;14.57;;
52322;SDS011;38263;52.920;6.238;2022-08-19T09:31:16;16.98;;;13.93;;
52322;SDS011;38263;52.920;6.238;2022-08-19T09:33:43;20.33;;;15.45;;
52322;SDS011;38263;52.920;6.238;2022-08-19T09:36:11;20.23;;;16.30;;
52322;SDS011;38263;52.920;6.238;2022-08-19T09:38:39;20.08;;;17.25;;
52322;SDS011;38263;52.920;6.238;2022-08-19T09:41:07;20.25;;;16.88;;
52322;SDS011;38263;52.920;6.238;2022-08-19T09:43:35;22.50;;;17.10;;
52322;SDS011;38263;52.920;6.238;2022-08-19T09:46:02;23.60;;;18.17;;
52322;SDS011;38263;52.920;6.238;2022-08-19T09:48:30;21.02;;;17.40;;
52322;SDS011;38263;52.920;6.238;2022-08-19T09:51:02;20.45;;;16.85;;
52322;SDS011;38263;52.920;6.238;2022-08-19T09:53:33;19.52;;;16.52;;
52322;SDS011;38263;52.920;6.238;2022-08-19T09:55:59;23.10;;;17.70;;
52322;SDS011;38263;52.920;6.238;2022-08-19T09:58:25;19.27;;;16.23;;
52322;SDS011;38263;52.920;6.238;2022-08-19T10:00:53;20.92;;;18.00;;
52322;SDS011;38263;52.920;6.238;2022-08-19T10:03:20;25.75;;;16.90;;
52322;SDS011;38263;52.920;6.238;2022-08-19T10:05:46;19.75;;;15.23;;
52322;SDS011;38263;52.920;6.238;2022-08-19T10:08:16;19.13;;;15.85;;
52322;SDS011;38263;52.920;6.238;2022-08-19T10:10:43;19.20;;;13.98;;
52322;SDS011;38263;52.920;6.238;2022-08-19T10:13:09;18.35;;;15.82;;
52322;SDS011;38263;52.920;6.238;2022-08-19T10:15:35;20.27;;;15.95;;
52322;SDS011;38263;52.920;6.238;2022-08-19T10:18:04;17.67;;;14.55;;
52322;SDS011;38263;52.920;6.238;2022-08-19T10:20:30;18.83;;;16.20;;
52322;SDS011;38263;52.920;6.238;2022-08-19T10:22:56;17.90;;;13.13;;
52322;SDS011;38263;52.920;6.238;2022-08-19T10:25:24;19.45;;;15.07;;
52322;SDS011;38263;52.920;6.238;2022-08-19T10:27:51;20.65;;;13.52;;
52322;SDS011;38263;52.920;6.238;2022-08-19T10:30:17;17.27;;;12.70;;
52322;SDS011;38263;52.920;6.238;2022-08-19T10:32:43;18.25;;;13.05;;
52322;SDS011;38263;52.920;6.238;2022-08-19T10:35:11;14.65;;;11.05;;
52322;SDS011;38263;52.920;6.238;2022-08-19T10:37:37;14.75;;;10.95;;
52322;SDS011;38263;52.920;6.238;2022-08-19T10:40:07;15.90;;;11.02;;
52322;SDS011;38263;52.920;6.238;2022-08-19T10:42:35;11.75;;;9.48;;
52322;SDS011;38263;52.920;6.238;2022-08-19T10:45:01;12.13;;;9.70;;
52322;SDS011;38263;52.920;6.238;2022-08-19T10:47:28;15.25;;;9.65;;
52322;SDS011;38263;52.920;6.238;2022-08-19T10:49:54;14.90;;;10.50;;
52322;SDS011;38263;52.920;6.238;2022-08-19T10:52:42;11.80;;;8.85;;
52322;SDS011;38263;52.920;6.238;2022-08-19T10:55:09;8.15;;;6.60;;
52322;SDS011;38263;52.920;6.238;2022-08-19T10:57:53;10.35;;;6.65;;
52322;SDS011;38263;52.920;6.238;2022-08-19T11:00:19;11.27;;;8.95;;
52322;SDS011;38263;52.920;6.238;2022-08-19T11:02:47;14.63;;;7.20;;
52322;SDS011;38263;52.920;6.238;2022-08-19T11:05:12;14.10;;;7.93;;
52322;SDS011;38263;52.920;6.238;2022-08-19T11:07:39;10.40;;;6.03;;
52322;SDS011;38263;52.920;6.238;2022-08-19T11:10:05;12.60;;;6.40;;
52322;SDS011;38263;52.920;6.238;2022-08-19T11:12:33;9.82;;;6.10;;
52322;SDS011;38263;52.920;6.238;2022-08-19T11:14:59;11.75;;;7.00;;
52322;SDS011;38263;52.920;6.238;2022-08-19T11:17:24;14.32;;;9.75;;
52322;SDS011;38263;52.920;6.238;2022-08-19T11:19:50;14.80;;;9.93;;
52322;SDS011;38263;52.920;6.238;2022-08-19T11:22:15;15.70;;;10.95;;
52322;SDS011;38263;52.920;6.238;2022-08-19T11:24:42;13.02;;;8.80;;
52322;SDS011;38263;52.920;6.238;2022-08-19T11:27:08;14.15;;;8.95;;
52322;SDS011;38263;52.920;6.238;2022-08-19T11:29:35;13.30;;;9.43;;
52322;SDS011;38263;52.920;6.238;2022-08-19T11:32:03;12.35;;;8.98;;
52322;SDS011;38263;52.920;6.238;2022-08-19T11:34:31;16.65;;;13.27;;
52322;SDS011;38263;52.920;6.238;2022-08-19T11:36:57;18.25;;;13.07;;
52322;SDS011;38263;52.920;6.238;2022-08-19T11:39:24;10.98;;;8.38;;
52322;SDS011;38263;52.920;6.238;2022-08-19T11:41:51;11.35;;;7.78;;
52322;SDS011;38263;52.920;6.238;2022-08-19T11:44:17;12.38;;;9.43;;
52322;SDS011;38263;52.920;6.238;2022-08-19T11:46:43;12.68;;;9.82;;
52322;SDS011;38263;52.920;6.238;2022-08-19T11:49:11;12.55;;;9.65;;
52322;SDS011;38263;52.920;6.238;2022-08-19T11:51:38;12.93;;;9.27;;
52322;SDS011;38263;52.920;6.238;2022-08-19T11:54:07;15.35;;;11.85;;
52322;SDS011;38263;52.920;6.238;2022-08-19T11:56:33;16.20;;;11.38;;
52322;SDS011;38263;52.920;6.238;2022-08-19T11:59:01;16.90;;;12.13;;
52322;SDS011;38263;52.920;6.238;2022-08-19T12:01:27;21.35;;;14.80;;
52322;SDS011;38263;52.920;6.238;2022-08-19T12:03:53;15.65;;;12.10;;
52322;SDS011;38263;52.920;6.238;2022-08-19T12:06:21;15.98;;;12.20;;
52322;SDS011;38263;52.920;6.238;2022-08-19T12:08:53;12.18;;;9.20;;
52322;SDS011;38263;52.920;6.238;2022-08-19T12:11:22;17.75;;;8.32;;
52322;SDS011;38263;52.920;6.238;2022-08-19T12:13:48;12.88;;;8.80;;
52322;SDS011;38263;52.920;6.238;2022-08-19T12:16:15;15.55;;;12.13;;
52322;SDS011;38263;52.920;6.238;2022-08-19T12:18:43;15.43;;;12.70;;
52322;SDS011;38263;52.920;6.238;2022-08-19T12:21:11;17.08;;;11.00;;
52322;SDS011;38263;52.920;6.238;2022-08-19T12:23:39;12.15;;;8.48;;
52322;SDS011;38263;52.920;6.238;2022-08-19T12:26:05;13.82;;;12.27;;
52322;SDS011;38263;52.920;6.238;2022-08-19T12:28:31;19.92;;;14.93;;
52322;SDS011;38263;52.920;6.238;2022-08-19T12:30:57;19.48;;;13.77;;
52322;SDS011;38263;52.920;6.238;2022-08-19T12:33:23;20.73;;;14.27;;
52322;SDS011;38263;52.920;6.238;2022-08-19T12:35:52;19.48;;;14.60;;
52322;SDS011;38263;52.920;6.238;2022-08-19T12:38:18;18.02;;;12.75;;
52322;SDS011;38263;52.920;6.238;2022-08-19T12:40:47;16.30;;;12.13;;
52322;SDS011;38263;52.920;6.238;2022-08-19T12:43:13;21.02;;;12.07;;
52322;SDS011;38263;52.920;6.238;2022-08-19T12:45:40;18.35;;;13.00;;
52322;SDS011;38263;52.920;6.238;2022-08-19T12:48:07;14.77;;;10.63;;
52322;SDS011;38263;52.920;6.238;2022-08-19T12:50:33;18.20;;;14.38;;
52322;SDS011;38263;52.920;6.238;2022-08-19T12:52:58;21.35;;;13.95;;
52322;SDS011;38263;52.920;6.238;2022-08-19T12:55:24;18.60;;;11.10;;
52322;SDS011;38263;52.920;6.238;2022-08-19T12:57:50;21.90;;;14.32;;
52322;SDS011;38263;52.920;6.238;2022-08-19T13:00:17;17.98;;;13.70;;
52322;SDS011;38263;52.920;6.238;2022-08-19T13:02:47;19.08;;;13.93;;
52322;SDS011;38263;52.920;6.238;2022-08-19T13:05:18;18.23;;;13.60;;
52322;SDS011;38263;52.920;6.238;2022-08-19T13:07:48;22.15;;;13.70;;
52322;SDS011;38263;52.920;6.238;2022-08-19T13:10:15;19.25;;;13.20;;
52322;SDS011;38263;52.920;6.238;2022-08-19T13:12:44;19.30;;;13.25;;
52322;SDS011;38263;52.920;6.238;2022-08-19T13:15:13;18.20;;;15.35;;
52322;SDS011;38263;52.920;6.238;2022-08-19T13:17:39;19.45;;;14.02;;
52322;SDS011;38263;52.920;6.238;2022-08-19T13:20:07;21.10;;;13.82;;
52322;SDS011;38263;52.920;6.238;2022-08-19T13:22:34;20.95;;;14.82;;
52322;SDS011;38263;52.920;6.238;2022-08-19T13:25:03;23.33;;;15.88;;
52322;SDS011;38263;52.920;6.238;2022-08-19T13:27:30;27.20;;;18.70;;
52322;SDS011;38263;52.920;6.238;2022-08-19T13:29:55;25.30;;;16.85;;
52322;SDS011;38263;52.920;6.238;2022-08-19T13:32:39;27.03;;;17.03;;
52322;SDS011;38263;52.920;6.238;2022-08-19T13:35:23;24.10;;;16.35;;
52322;SDS011;38263;52.920;6.238;2022-08-19T13:37:49;23.40;;;15.00;;
52322;SDS011;38263;52.920;6.238;2022-08-19T13:40:19;20.15;;;15.40;;
52322;SDS011;38263;52.920;6.238;2022-08-19T13:42:49;22.05;;;15.30;;
52322;SDS011;38263;52.920;6.238;2022-08-19T13:45:17;21.92;;;16.38;;
52322;SDS011;38263;52.920;6.238;2022-08-19T13:47:45;27.30;;;17.15;;
52322;SDS011;38263;52.920;6.238;2022-08-19T13:50:13;29.52;;;17.85;;
52322;SDS011;38263;52.920;6.238;2022-08-19T13:52:42;29.02;;;19.55;;
52322;SDS011;38263;52.920;6.238;2022-08-19T13:55:09;25.67;;;19.20;;
52322;SDS011;38263;52.920;6.238;2022-08-19T13:57:36;24.65;;;19.35;;
52322;SDS011;38263;52.920;6.238;2022-08-19T14:00:04;24.95;;;19.75;;
52322;SDS011;38263;52.920;6.238;2022-08-19T14:02:37;32.17;;;21.10;;
52322;SDS011;38263;52.920;6.238;2022-08-19T14:05:09;28.75;;;19.88;;
52322;SDS011;38263;52.920;6.238;2022-08-19T14:07:36;36.22;;;21.73;;
52322;SDS011;38263;52.920;6.238;2022-08-19T14:10:03;34.80;;;22.25;;
52322;SDS011;38263;52.920;6.238;2022-08-19T14:12:31;33.65;;;22.15;;
52322;SDS011;38263;52.920;6.238;2022-08-19T14:14:57;31.40;;;23.42;;
52322;SDS011;38263;52.920;6.238;2022-08-19T14:17:23;33.80;;;23.25;;
52322;SDS011;38263;52.920;6.238;2022-08-19T14:19:49;29.73;;;21.88;;
52322;SDS011;38263;52.920;6.238;2022-08-19T14:22:22;29.58;;;21.77;;
52322;SDS011;38263;52.920;6.238;2022-08-19T14:24:48;27.02;;;20.08;;
52322;SDS011;38263;52.920;6.238;2022-08-19T14:27:15;27.60;;;21.00;;
52322;SDS011;38263;52.920;6.238;2022-08-19T14:29:41;27.83;;;19.92;;
52322;SDS011;38263;52.920;6.238;2022-08-19T14:32:07;30.13;;;17.83;;
52322;SDS011;38263;52.920;6.238;2022-08-19T14:34:32;19.77;;;13.50;;
52322;SDS011;38263;52.920;6.238;2022-08-19T14:36:58;19.95;;;11.52;;
52322;SDS011;38263;52.920;6.238;2022-08-19T14:39:24;16.63;;;9.80;;
52322;SDS011;38263;52.920;6.238;2022-08-19T14:41:50;11.98;;;8.32;;
52322;SDS011;38263;52.920;6.238;2022-08-19T14:44:16;14.65;;;8.77;;
52322;SDS011;38263;52.920;6.238;2022-08-19T14:46:41;12.52;;;8.45;;
52322;SDS011;38263;52.920;6.238;2022-08-19T14:49:07;16.63;;;9.85;;